Time;durP1;ratioP1;P1;durP2;ratioP2;P2;SDS_P1;SDS_P2;PMS_P1;PMS_P2;Temp;Humidity;BMP_temperature;BMP_pressure;BME280_temperature;BME280_humidity;BME280_pressure;Samples;Min_cycle;Max_cycle;Signal;HPM_P1;HPM_P2
2024/01/05 00:01:57;;;;;;;10.30;5.80;;;;;;;12.39;63.30;98631.11;1834398;78;21328;-89
2024/01/05 00:05:04;;;;;;;11.28;6.20;;;;;;;12.65;62.95;98638.16;1835349;78;21311;-89
2024/01/05 00:08:09;;;;;;;12.37;6.65;;;;;;;12.76;62.84;98636.03;1835387;78;21300;-89
2024/01/05 00:11:15;;;;;;;9.45;6.78;;;;;;;12.23;64.49;98633.07;1835174;78;21894;-88
2024/01/05 00:14:21;;;;;;;9.33;7.35;;;;;;;12.80;62.93;98633.67;1835280;78;21949;-88
2024/01/05 00:17:27;;;;;;;9.63;7.42;;;;;;;12.57;63.37;98633.55;1835152;78;21288;-88
2024/01/05 00:20:33;;;;;;;14.28;7.90;;;;;;;12.61;63.40;98635.61;1835387;78;21288;-90
2024/01/05 00:23:40;;;;;;;19.52;8.60;;;;;;;12.68;62.72;98643.20;1835375;78;21660;-89
2024/01/05 00:26:50;;;;;;;13.60;8.80;;;;;;;12.58;63.19;98653.05;1835414;78;21292;-88
2024/01/05 00:29:57;;;;;;;18.07;7.97;;;;;;;12.87;61.91;98656.89;1831693;78;22617;-89
2024/01/05 00:33:03;;;;;;;12.60;8.53;;;;;;;12.53;61.88;98657.31;1826405;78;21296;-89
2024/01/05 00:36:12;;;;;;;14.30;8.48;;;;;;;12.76;61.22;98664.84;1827761;78;21859;-89
2024/01/05 00:39:19;;;;;;;10.55;7.42;;;;;;;12.60;61.15;98649.53;1827985;78;21289;-90
2024/01/05 00:42:25;;;;;;;18.73;7.97;;;;;;;12.58;60.91;98650.30;1827041;78;21295;-90
2024/01/05 00:45:31;;;;;;;14.60;8.18;;;;;;;12.91;59.97;98647.14;1827906;78;21308;-89
2024/01/05 00:48:38;;;;;;;23.80;8.00;;;;;;;12.99;59.63;98640.80;1826317;78;21292;-90
2024/01/05 00:51:45;;;;;;;10.25;7.67;;;;;;;12.73;59.47;98643.34;1826372;78;21292;-89
2024/01/05 00:54:50;;;;;;;11.03;7.70;;;;;;;12.46;60.75;98653.80;1827738;78;21299;-88
2024/01/05 00:57:57;;;;;;;11.38;7.78;;;;;;;12.58;60.32;98648.39;1827847;78;21284;-89
2024/01/05 01:01:04;;;;;;;10.95;7.85;;;;;;;12.10;61.77;98646.41;1827940;78;21304;-89
2024/01/05 01:04:10;;;;;;;20.80;9.55;;;;;;;12.19;61.69;98648.33;1827835;78;21289;-89
2024/01/05 01:07:16;;;;;;;11.22;8.40;;;;;;;12.56;61.01;98650.52;1827809;78;21292;-89
2024/01/05 01:10:22;;;;;;;11.60;8.33;;;;;;;12.94;59.87;98647.52;1827941;78;21292;-89
2024/01/05 01:13:29;;;;;;;12.85;7.95;;;;;;;12.97;59.08;98656.64;1826583;78;21296;-89
2024/01/05 01:16:35;;;;;;;11.05;8.00;;;;;;;12.71;59.41;98657.84;1827756;78;21308;-89
2024/01/05 01:19:40;;;;;;;9.78;7.78;;;;;;;12.72;59.68;98662.78;1827659;78;21280;-89
2024/01/05 01:22:46;;;;;;;11.22;7.90;;;;;;;12.94;59.14;98652.17;1743128;82;21933;-88
2024/01/05 01:25:53;;;;;;;14.53;6.97;;;;;;;12.75;59.36;98660.94;1773823;81;21299;-89
2024/01/05 01:28:59;;;;;;;14.47;7.92;;;;;;;12.91;58.89;98662.23;1743279;82;21307;-89
2024/01/05 01:32:06;;;;;;;14.43;7.17;;;;;;;12.70;59.51;98652.56;1764467;80;21320;-88
2024/01/05 01:35:12;;;;;;;11.78;6.80;;;;;;;12.36;60.32;98645.80;1763010;81;22647;-89
2024/01/05 01:38:19;;;;;;;10.35;7.15;;;;;;;12.33;60.70;98641.63;1764559;81;21890;-89
2024/01/05 01:41:25;;;;;;;11.20;7.17;;;;;;;11.80;61.90;98628.95;1742150;82;21949;-89
2024/01/05 01:44:31;;;;;;;21.60;7.22;;;;;;;12.12;61.40;98629.72;1754520;81;21333;-89
2024/01/05 01:47:38;;;;;;;11.60;6.25;;;;;;;12.25;60.80;98629.59;1742058;82;21342;-89
2024/01/05 01:50:45;;;;;;;10.90;6.67;;;;;;;12.20;60.87;98627.53;1755846;81;21301;-89
2024/01/05 01:53:52;;;;;;;18.95;7.10;;;;;;;12.36;60.31;98621.13;1741256;82;21639;-89
2024/01/05 01:56:59;;;;;;;11.35;7.03;;;;;;;12.40;60.03;98619.07;1755938;81;21308;-89
2024/01/05 02:00:06;;;;;;;10.28;7.47;;;;;;;12.32;60.05;98622.11;1742152;82;21299;-88
2024/01/05 02:03:12;;;;;;;11.78;8.20;;;;;;;12.15;61.11;98617.78;1755510;81;21902;-89
2024/01/05 02:06:19;;;;;;;12.25;7.72;;;;;;;12.36;60.46;98624.70;1742147;82;21303;-88
2024/01/05 02:09:26;;;;;;;11.83;8.15;;;;;;;12.51;60.12;98627.92;1755925;81;21331;-90
2024/01/05 02:12:32;;;;;;;13.53;8.60;;;;;;;12.45;60.28;98640.31;1742067;82;21894;-89
2024/01/05 02:15:39;;;;;;;12.20;8.03;;;;;;;12.59;60.60;98646.48;1756006;81;21301;-89
2024/01/05 02:18:45;;;;;;;13.75;8.80;;;;;;;12.58;59.90;98654.42;1741652;82;21326;-89
2024/01/05 02:21:54;;;;;;;12.73;8.60;;;;;;;12.76;60.12;98644.80;1755951;81;21297;-89
2024/01/05 02:25:00;;;;;;;14.00;9.83;;;;;;;12.32;61.45;98639.09;1740695;82;21326;-89
2024/01/05 02:28:06;;;;;;;18.02;9.80;;;;;;;12.35;61.36;98644.97;1754462;81;21332;-89
2024/01/05 02:31:13;;;;;;;16.37;9.98;;;;;;;12.49;60.90;98647.86;1742185;81;21334;-89
2024/01/05 02:34:19;;;;;;;14.90;10.00;;;;;;;12.70;60.75;98649.31;1807455;79;22020;-89
2024/01/05 02:37:26;;;;;;;13.50;9.25;;;;;;;12.78;60.70;98648.97;1808246;79;21308;-89
2024/01/05 02:40:33;;;;;;;13.58;9.93;;;;;;;13.00;59.44;98648.48;1739851;82;21333;-89
2024/01/05 02:43:38;;;;;;;15.75;9.15;;;;;;;12.78;60.12;98650.88;1741916;82;21355;-89
2024/01/05 02:46:45;;;;;;;16.12;10.50;;;;;;;12.58;60.47;98643.45;1734930;82;21854;-89
2024/01/05 02:49:51;;;;;;;18.10;11.08;;;;;;;13.13;58.68;98637.87;1758169;81;21339;-88
2024/01/05 02:52:57;;;;;;;17.55;10.88;;;;;;;12.86;58.95;98636.02;1759291;81;21866;-89
2024/01/05 02:56:04;;;;;;;15.98;10.48;;;;;;;12.49;60.57;98640.17;1759267;81;21297;-88
2024/01/05 02:59:03;;;;;;;19.45;11.28;;;;;;;12.58;60.10;98639.33;1759252;81;21300;-89
2024/01/05 03:02:08;;;;;;;21.60;11.97;;;;;;;12.36;61.01;98639.78;1731121;81;21300;-89
2024/01/05 03:05:14;;;;;;;16.67;10.72;;;;;;;12.38;61.62;98640.95;1718915;83;21352;-89
2024/01/05 03:08:21;;;;;;;17.95;11.53;;;;;;;12.68;60.43;98640.99;1720319;83;21894;-88
2024/01/05 03:11:26;;;;;;;16.57;10.38;;;;;;;12.48;61.19;98639.88;1720412;83;21308;-89
2024/01/05 03:14:32;;;;;;;15.58;9.80;;;;;;;12.78;60.30;98639.91;1720120;83;21879;-89
2024/01/05 03:17:37;;;;;;;15.23;10.78;;;;;;;13.09;59.43;98632.00;1720457;82;21299;-90
2024/01/05 03:20:43;;;;;;;17.00;10.82;;;;;;;13.22;58.85;98637.84;1720344;83;21351;-89
2024/01/05 03:23:49;;;;;;;22.48;11.38;;;;;;;13.11;59.32;98634.50;1721585;83;21335;-89
2024/01/05 03:26:56;;;;;;;18.75;11.28;;;;;;;13.49;58.37;98634.98;1721572;83;21969;-88
2024/01/05 03:30:04;;;;;;;17.67;10.95;;;;;;;13.67;57.69;98638.73;1721381;83;21311;-88
2024/01/05 03:33:11;;;;;;;18.25;11.50;;;;;;;13.81;56.74;98638.27;1727902;82;21338;-89
2024/01/05 03:36:18;;;;;;;19.27;11.95;;;;;;;13.55;57.23;98647.80;1745406;82;21351;-89
2024/01/05 03:39:23;;;;;;;23.20;11.80;;;;;;;13.43;57.78;98640.06;1745408;82;21645;-89
2024/01/05 03:42:29;;;;;;;20.37;12.43;;;;;;;13.68;56.61;98643.14;1745337;82;21346;-87
2024/01/05 03:45:35;;;;;;;20.00;12.43;;;;;;;13.59;56.47;98638.53;1745362;82;21371;-89
2024/01/05 03:48:41;;;;;;;19.65;12.00;;;;;;;13.39;56.86;98640.77;1746893;82;21319;-88
2024/01/05 03:51:48;;;;;;;17.77;11.65;;;;;;;13.10;57.46;98650.67;1747811;82;21280;-89
2024/01/05 03:54:54;;;;;;;20.30;11.53;;;;;;;13.26;57.41;98648.66;1746556;82;21885;-89
2024/01/05 03:58:01;;;;;;;22.30;12.95;;;;;;;13.35;57.42;98657.41;1746670;82;21316;-89
2024/01/05 04:01:08;;;;;;;31.70;12.47;;;;;;;13.38;57.41;98655.03;1746742;82;21303;-89
2024/01/05 04:04:14;;;;;;;15.63;10.55;;;;;;;13.46;57.22;98657.45;1747003;82;22337;-90
2024/01/05 04:07:21;;;;;;;15.35;10.05;;;;;;;13.15;57.59;98654.93;1746792;82;21319;-89
2024/01/05 04:10:28;;;;;;;18.90;12.18;;;;;;;12.85;57.59;98654.39;1745497;82;21314;-89
2024/01/05 04:13:35;;;;;;;17.07;11.30;;;;;;;12.88;58.07;98655.82;1746760;82;21307;-90
2024/01/05 04:16:41;;;;;;;18.57;11.12;;;;;;;12.60;58.92;98654.47;1745529;82;21340;-89
2024/01/05 04:19:48;;;;;;;22.80;12.00;;;;;;;12.97;57.90;98644.28;1746875;82;21308;-89
2024/01/05 04:22:55;;;;;;;19.77;10.23;;;;;;;13.04;57.31;98653.28;1746778;82;21902;-90
2024/01/05 04:26:02;;;;;;;30.15;12.70;;;;;;;12.78;58.07;98659.95;1746003;82;21932;-89
2024/01/05 04:29:07;;;;;;;29.37;13.40;;;;;;;12.44;59.05;98661.42;1746999;82;21304;-88
2024/01/05 04:32:14;;;;;;;17.40;12.03;;;;;;;12.63;58.86;98664.16;1746780;82;21910;-88
2024/01/05 04:35:20;;;;;;;26.75;11.95;;;;;;;12.30;59.30;98665.38;1743639;82;21347;-89
2024/01/05 04:38:28;;;;;;;27.75;14.23;;;;;;;12.25;59.24;98674.81;1743128;82;21316;-89
2024/01/05 04:41:34;;;;;;;15.23;10.60;;;;;;;11.85;60.26;98674.34;1741708;82;21315;-89
2024/01/05 04:44:40;;;;;;;14.15;10.08;;;;;;;12.24;59.80;98693.17;1743064;82;21363;-89
2024/01/05 04:47:47;;;;;;;12.28;8.88;;;;;;;12.56;58.39;98701.78;1743106;82;21885;-89
2024/01/05 04:50:53;;;;;;;23.73;9.53;;;;;;;12.93;57.48;98714.96;1743114;82;21363;-89
2024/01/05 04:54:00;;;;;;;15.00;10.65;;;;;;;12.76;57.52;98718.34;1743268;82;21316;-89
2024/01/05 04:57:07;;;;;;;48.87;11.08;;;;;;;12.79;57.77;98716.48;1741835;82;21336;-89
2024/01/05 05:00:14;;;;;;;17.65;11.83;;;;;;;12.90;57.69;98726.42;1743126;82;21894;-89
2024/01/05 05:03:21;;;;;;;14.43;10.05;;;;;;;12.95;57.42;98728.77;1743183;82;21335;-88
2024/01/05 05:06:21;;;;;;;26.87;11.15;;;;;;;12.95;57.51;98732.89;1742296;82;21327;-89
2024/01/05 05:09:14;;;;;;;17.30;11.22;;;;;;;12.91;57.75;98731.67;1743199;82;21300;-90
2024/01/05 05:12:00;;;;;;;21.95;10.90;;;;;;;12.70;57.88;98740.34;1743236;82;21336;-88
2024/01/05 05:14:54;;;;;;;21.07;10.32;;;;;;;12.73;58.42;98734.41;1741757;82;21307;-89
2024/01/05 05:18:01;;;;;;;14.13;10.00;;;;;;;12.68;58.53;98741.12;1743146;82;21308;-88
2024/01/05 05:21:08;;;;;;;16.12;10.65;;;;;;;12.88;58.05;98740.34;1741600;82;22585;-89
2024/01/05 05:24:14;;;;;;;13.13;10.03;;;;;;;13.00;57.02;98742.64;1743160;82;21241;-88
2024/01/05 05:27:19;;;;;;;16.17;11.40;;;;;;;12.32;59.00;98750.13;1742021;82;21355;-89
2024/01/05 05:30:26;;;;;;;18.42;12.47;;;;;;;12.29;59.23;98745.95;1743156;82;21308;-89
2024/01/05 05:33:32;;;;;;;18.37;12.10;;;;;;;11.92;60.72;98746.38;1743147;82;21336;-88
2024/01/05 05:36:38;;;;;;;17.12;11.60;;;;;;;11.94;61.10;98752.45;1744835;81;21376;-89
2024/01/05 05:39:43;;;;;;;22.93;12.18;;;;;;;12.41;59.90;98750.98;1748226;80;21363;-88
2024/01/05 05:42:50;;;;;;;16.42;11.22;;;;;;;12.31;59.87;98746.55;1776119;80;21894;-89
2024/01/05 05:45:56;;;;;;;19.92;11.18;;;;;;;12.11;60.50;98747.27;1777515;80;21906;-89
2024/01/05 05:49:03;;;;;;;20.00;12.28;;;;;;;12.16;60.44;98744.70;1777468;80;21653;-88
2024/01/05 05:52:09;;;;;;;17.27;10.32;;;;;;;12.25;61.06;98742.81;1759827;81;21383;-88
2024/01/05 05:55:16;;;;;;;14.50;9.93;;;;;;;12.25;61.40;98748.30;1780768;80;21295;-88
2024/01/05 05:58:26;;;;;;;20.32;10.15;;;;;;;12.43;60.49;98755.73;1760066;81;21334;-89
2024/01/05 06:01:31;;;;;;;16.35;9.63;;;;;;;12.86;59.25;98745.23;1780855;80;21874;-89
2024/01/05 06:04:37;;;;;;;14.68;8.80;;;;;;;12.70;59.50;98743.95;1760175;81;21320;-89
2024/01/05 06:07:43;;;;;;;13.15;8.18;;;;;;;12.38;60.84;98747.88;1747609;80;21358;-89
2024/01/05 06:10:48;;;;;;;11.35;8.13;;;;;;;12.59;60.01;98747.43;1732753;81;21287;-90
2024/01/05 06:13:54;;;;;;;10.98;7.92;;;;;;;12.92;59.22;98749.80;1750602;80;21303;-89
2024/01/05 06:17:00;;;;;;;13.62;8.95;;;;;;;12.68;59.40;98747.97;1753424;80;21325;-89
2024/01/05 06:20:08;;;;;;;14.55;8.73;;;;;;;12.79;58.98;98749.95;1750095;80;21930;-89
2024/01/05 06:23:14;;;;;;;14.55;9.65;;;;;;;12.98;58.93;98750.24;1750848;80;21348;-89
2024/01/05 06:26:20;;;;;;;13.18;8.73;;;;;;;12.78;59.50;98749.66;1755370;81;21283;-88
2024/01/05 06:29:27;;;;;;;16.60;10.48;;;;;;;12.83;59.25;98751.71;1750554;81;21291;-87
2024/01/05 06:32:32;;;;;;;14.83;9.98;;;;;;;12.95;59.00;98745.23;1757579;81;22296;-89
2024/01/05 06:35:38;;;;;;;13.62;10.00;;;;;;;13.17;58.71;98757.93;1748712;82;21809;-89
2024/01/05 06:38:45;;;;;;;15.20;10.23;;;;;;;12.91;59.54;98756.36;1755714;80;21328;-89
2024/01/05 06:41:50;;;;;;;14.40;9.63;;;;;;;13.02;59.44;98763.81;1749949;80;21331;-89
2024/01/05 06:44:56;;;;;;;16.37;10.18;;;;;;;13.18;59.00;98761.54;1757190;81;21327;-89
2024/01/05 06:48:02;;;;;;;15.90;10.13;;;;;;;13.01;59.58;98772.29;1758388;80;21326;-90
2024/01/05 06:51:09;;;;;;;13.98;9.73;;;;;;;13.59;57.91;98779.17;1752670;81;22383;-90
2024/01/05 06:54:14;;;;;;;13.80;9.68;;;;;;;13.08;58.79;98777.19;1756857;80;21306;-89
2024/01/05 06:57:21;;;;;;;12.05;8.90;;;;;;;13.27;58.71;98783.52;1737405;81;21296;-88
2024/01/05 07:00:28;;;;;;;14.90;9.18;;;;;;;13.66;57.79;98786.80;1713971;80;21285;-90
2024/01/05 07:03:35;;;;;;;11.88;8.30;;;;;;;13.36;58.68;98786.77;1734488;81;21214;-90
2024/01/05 07:06:45;;;;;;;11.97;8.90;;;;;;;13.64;58.03;98797.16;1748945;81;21866;-90
2024/01/05 07:09:49;;;;;;;11.93;9.20;;;;;;;13.62;58.62;98805.65;1754542;80;21348;-89
2024/01/05 07:12:55;;;;;;;12.68;9.25;;;;;;;13.61;58.30;98810.02;1752174;80;21337;-89
2024/01/05 07:16:02;;;;;;;12.63;9.30;;;;;;;13.62;58.57;98813.89;1749149;80;21421;-88
2024/01/05 07:19:08;;;;;;;11.75;8.83;;;;;;;13.38;59.32;98829.42;1750586;80;21922;-89
2024/01/05 07:22:14;;;;;;;12.25;9.40;;;;;;;13.79;58.12;98829.20;1759049;80;21327;-89
2024/01/05 07:25:20;;;;;;;10.98;7.92;;;;;;;13.79;57.74;98838.28;1749973;80;21319;-89
2024/01/05 07:28:26;;;;;;;9.78;7.50;;;;;;;13.33;59.29;98840.27;1756582;81;21288;-87
2024/01/05 07:31:32;;;;;;;12.95;7.65;;;;;;;13.44;59.06;98848.25;1746958;80;21300;-89
2024/01/05 07:34:39;;;;;;;12.73;8.75;;;;;;;13.61;58.55;98855.34;1750012;80;21347;-89
2024/01/05 07:37:50;;;;;;;13.78;10.35;;;;;;;13.54;58.60;98861.73;1748858;80;21985;-89
2024/01/05 07:40:57;;;;;;;14.40;9.65;;;;;;;13.85;58.06;98872.78;1764403;81;21265;-89
2024/01/05 07:44:03;;;;;;;16.82;10.23;;;;;;;13.78;57.67;98870.97;1747288;81;21322;-89
2024/01/05 07:47:09;;;;;;;15.32;10.20;;;;;;;13.65;58.41;98873.05;1729001;82;21651;-89
2024/01/05 07:50:15;;;;;;;13.45;9.58;;;;;;;14.28;56.88;98878.06;1747132;81;21880;-89
2024/01/05 07:53:20;;;;;;;17.00;10.43;;;;;;;13.85;57.07;98884.61;1730886;82;21312;-89
2024/01/05 07:56:26;;;;;;;20.35;10.95;;;;;;;13.97;57.39;98885.51;1757103;81;21276;-89
2024/01/05 07:59:32;;;;;;;21.00;10.05;;;;;;;13.78;58.12;98876.97;1747789;81;22607;-89
2024/01/05 08:02:38;;;;;;;26.00;10.32;;;;;;;13.70;58.06;98877.31;1757351;81;21285;-89
2024/01/05 08:05:45;;;;;;;19.15;11.70;;;;;;;13.65;57.74;98884.03;1749213;81;22504;-89
2024/01/05 08:08:56;;;;;;;25.05;9.53;;;;;;;13.47;57.98;98888.47;1734021;82;21287;-90
2024/01/05 08:12:02;;;;;;;20.52;11.73;;;;;;;13.50;57.94;98901.75;1762859;81;21285;-90
2024/01/05 08:15:09;;;;;;;18.10;10.50;;;;;;;13.66;57.42;98903.03;1754399;81;21283;-89
2024/01/05 08:18:16;;;;;;;16.48;10.65;;;;;;;13.90;56.79;98906.73;1749917;81;21317;-90
2024/01/05 08:21:22;;;;;;;16.00;10.95;;;;;;;14.11;56.59;98904.53;1749938;81;21299;-89
2024/01/05 08:24:28;;;;;;;16.70;11.60;;;;;;;13.64;57.82;98911.18;1727877;82;21297;-91
2024/01/05 08:27:35;;;;;;;17.27;10.98;;;;;;;13.79;57.99;98915.77;1722532;82;22380;-89
2024/01/05 08:30:40;;;;;;;20.23;11.73;;;;;;;14.07;57.00;98919.31;1742466;81;22330;-88
2024/01/05 08:33:47;;;;;;;19.75;11.45;;;;;;;14.27;56.62;98919.02;1726269;82;21308;-89
2024/01/05 08:36:54;;;;;;;17.87;11.50;;;;;;;14.29;56.07;98920.45;1755266;81;21300;-89
2024/01/05 08:40:00;;;;;;;16.15;11.00;;;;;;;14.35;56.27;98919.20;1751224;80;21305;-90
2024/01/05 08:43:05;;;;;;;18.67;11.85;;;;;;;14.44;56.25;98925.51;1749409;81;21271;-89
2024/01/05 08:46:11;;;;;;;18.65;11.20;;;;;;;14.53;55.87;98915.88;1755787;80;22369;-88
2024/01/05 08:49:17;;;;;;;21.20;12.00;;;;;;;14.61;55.61;98913.88;1749296;80;21362;-88
2024/01/05 08:52:23;;;;;;;16.97;11.00;;;;;;;14.40;55.94;98920.74;1747744;80;21301;-89
2024/01/05 08:55:29;;;;;;;20.72;11.30;;;;;;;14.29;56.19;98927.33;1752415;80;21317;-88
2024/01/05 08:58:34;;;;;;;15.60;10.32;;;;;;;14.05;57.23;98931.89;1752078;80;21308;-89
2024/01/05 09:01:41;;;;;;;14.75;10.08;;;;;;;14.29;56.54;98940.23;1750065;80;22605;-90
2024/01/05 09:04:47;;;;;;;13.80;8.83;;;;;;;14.43;55.80;98933.47;1738245;81;21302;-89
2024/01/05 09:07:55;;;;;;;22.13;9.48;;;;;;;14.56;56.03;98934.67;1759588;80;21359;-89
2024/01/05 09:11:01;;;;;;;14.58;8.38;;;;;;;14.43;56.44;98929.34;1756392;80;21255;-90
2024/01/05 09:14:06;;;;;;;19.55;8.53;;;;;;;14.60;56.58;98928.72;1756964;80;21283;-90
2024/01/05 09:17:12;;;;;;;12.58;7.22;;;;;;;14.84;56.06;98927.67;1753705;80;21355;-88
2024/01/05 09:20:19;;;;;;;12.80;7.83;;;;;;;14.96;56.21;98931.80;1750182;80;21303;-88
2024/01/05 09:23:26;;;;;;;16.70;6.95;;;;;;;15.24;56.11;98939.36;1754681;81;21324;-89
2024/01/05 09:26:31;;;;;;;11.43;7.95;;;;;;;15.40;55.70;98940.56;1751048;80;21362;-91
2024/01/05 09:29:38;;;;;;;11.33;7.62;;;;;;;15.41;55.03;98938.10;1759894;80;21357;-90
2024/01/05 09:32:44;;;;;;;11.97;7.47;;;;;;;15.17;54.97;98938.66;1750187;80;21293;-90
2024/01/05 09:35:51;;;;;;;9.75;7.05;;;;;;;15.30;55.24;98937.04;1758236;81;21410;-89
2024/01/05 09:38:56;;;;;;;11.30;7.40;;;;;;;15.58;54.08;98945.94;1751236;81;21292;-89
2024/01/05 09:42:02;;;;;;;11.93;7.87;;;;;;;15.48;53.99;98947.93;1722818;81;21358;-89
2024/01/05 09:45:08;;;;;;;15.10;9.43;;;;;;;15.07;54.54;98944.76;1731633;81;21287;-89
2024/01/05 09:48:15;;;;;;;15.13;8.05;;;;;;;15.37;54.10;98946.00;1708316;83;22298;-90
2024/01/05 09:51:22;;;;;;;11.78;6.75;;;;;;;15.52;53.84;98939.45;1732222;81;21875;-89
2024/01/05 09:54:29;;;;;;;16.15;6.90;;;;;;;15.62;53.72;98944.38;1737203;81;21857;-89
2024/01/05 09:57:34;;;;;;;9.05;6.08;;;;;;;15.13;54.84;98950.68;1733924;81;21308;-90
2024/01/05 10:00:39;;;;;;;9.35;6.50;;;;;;;15.51;54.19;98949.34;1735109;82;21299;-89
2024/01/05 10:03:46;;;;;;;9.73;6.17;;;;;;;15.60;53.59;98950.11;1726599;81;21338;-88
2024/01/05 10:06:53;;;;;;;11.20;6.75;;;;;;;15.66;53.82;98955.77;1721872;82;22439;-88
2024/01/05 10:10:03;;;;;;;13.45;7.92;;;;;;;15.72;53.26;98957.58;1731963;81;21957;-88
2024/01/05 10:13:14;;;;;;;11.88;7.05;;;;;;;15.40;53.40;98961.23;1725786;82;22212;-88
2024/01/05 10:16:23;;;;;;;12.43;6.95;;;;;;;15.66;53.04;98954.39;1726673;82;21277;-86
2024/01/05 10:19:27;;;;;;;14.40;7.33;;;;;;;15.62;52.89;98966.94;1719242;82;21311;-88
2024/01/05 10:22:34;;;;;;;12.03;6.60;;;;;;;15.59;52.64;98964.14;1729790;82;21330;-89
2024/01/05 10:25:42;;;;;;;12.93;6.83;;;;;;;15.77;52.61;98964.58;1732609;80;22371;-90
2024/01/05 10:28:49;;;;;;;10.65;6.80;;;;;;;15.98;52.43;98972.18;1683035;83;21342;-89
2024/01/05 10:31:54;;;;;;;12.33;7.50;;;;;;;15.78;53.27;98963.48;1722340;82;21366;-90
2024/01/05 10:35:00;;;;;;;8.68;6.28;;;;;;;16.09;52.39;98968.57;1731724;80;21310;-89
2024/01/05 10:38:15;;;;;;;11.53;6.33;;;;;;;16.29;51.95;98960.40;1730435;80;21362;-89
2024/01/05 10:41:22;;;;;;;10.00;6.05;;;;;;;16.03;52.10;98965.94;1744578;81;21300;-89
2024/01/05 10:44:28;;;;;;;10.75;6.03;;;;;;;15.89;52.57;98970.88;1753721;81;21299;-89
2024/01/05 10:47:54;;;;;;;12.30;7.30;;;;;;;16.25;52.13;98971.63;1755484;81;21332;-89
2024/01/05 10:50:48;;;;;;;13.62;7.80;;;;;;;15.93;52.89;98976.75;1733214;81;21918;-89
2024/01/05 10:53:58;;;;;;;14.23;6.45;;;;;;;15.91;53.23;98975.62;1807941;78;21985;-89
2024/01/05 10:57:03;;;;;;;11.55;7.20;;;;;;;15.97;53.31;98984.84;1788806;78;21300;-90
2024/01/05 11:00:09;;;;;;;10.78;6.55;;;;;;;16.36;52.23;98983.98;1808397;78;21294;-90
2024/01/05 11:03:22;;;;;;;14.40;5.78;;;;;;;16.07;52.67;98987.81;1799249;79;21264;-89
2024/01/05 11:06:27;;;;;;;9.38;5.10;;;;;;;15.82;53.09;98995.84;1810276;78;21283;-89
2024/01/05 11:09:48;;;;;;;9.48;5.42;;;;;;;15.89;52.54;98988.80;1805506;78;21283;-88
2024/01/05 11:13:30;;;;;;;8.55;5.70;;;;;;;16.25;51.42;98995.08;1798344;78;21320;-89
2024/01/05 11:17:16;;;;;;;9.33;5.55;;;;;;;16.14;51.46;99000.94;1801890;78;21308;-89
2024/01/05 11:20:52;;;;;;;9.20;5.58;;;;;;;16.42;50.85;99004.77;1800989;79;21334;-90
2024/01/05 11:24:03;;;;;;;8.78;5.30;;;;;;;16.56;50.97;99003.39;1819134;78;21319;-90
2024/01/05 11:27:11;;;;;;;8.38;5.12;;;;;;;16.27;51.12;99003.39;1802522;78;21299;-89
2024/01/05 11:30:17;;;;;;;8.15;4.90;;;;;;;16.53;50.33;99008.88;1796872;78;21292;-90
2024/01/05 11:33:49;;;;;;;12.47;5.22;;;;;;;16.43;50.29;99008.69;1804968;78;22707;-90
2024/01/05 11:37:08;;;;;;;6.47;4.83;;;;;;;16.56;50.25;99013.92;1739234;81;22445;-89
2024/01/05 11:40:13;;;;;;;8.75;5.00;;;;;;;16.52;50.20;99022.39;1737709;81;21324;-90
2024/01/05 11:43:39;;;;;;;8.00;5.10;;;;;;;16.47;50.89;99027.82;1748817;81;21350;-90
2024/01/05 11:46:59;;;;;;;7.42;4.05;;;;;;;16.53;50.75;99029.59;1746031;81;21312;-90
2024/01/05 11:50:05;;;;;;;6.67;4.33;;;;;;;16.60;50.91;99033.56;1754405;81;21299;-88
2024/01/05 11:53:28;;;;;;;7.97;4.33;;;;;;;16.60;50.21;99035.78;1765834;80;21895;-89
2024/01/05 11:56:32;;;;;;;7.65;4.15;;;;;;;16.58;50.28;99042.65;1745835;81;21358;-89
2024/01/05 11:59:38;;;;;;;7.00;4.10;;;;;;;16.29;50.30;99044.00;1752002;81;21308;-90
2024/01/05 12:02:46;;;;;;;7.90;4.45;;;;;;;16.65;49.27;99048.01;1741862;81;21305;-89
2024/01/05 12:05:55;;;;;;;7.40;4.60;;;;;;;16.87;48.96;99055.93;1756770;80;21323;-90
2024/01/05 12:09:01;;;;;;;6.37;4.87;;;;;;;16.66;49.27;99069.88;1719895;82;22484;-90
2024/01/05 12:12:25;;;;;;;9.18;5.25;;;;;;;16.83;48.95;99071.31;1742011;82;21363;-89
2024/01/05 12:15:30;;;;;;;12.30;5.47;;;;;;;16.85;48.79;99076.06;1769305;81;21855;-89
2024/01/05 12:18:38;;;;;;;12.45;4.83;;;;;;;17.14;48.20;99089.30;1750316;81;21311;-89
2024/01/05 12:21:44;;;;;;;14.15;4.67;;;;;;;17.48;47.31;99089.33;1757629;81;21268;-89
2024/01/05 12:24:52;;;;;;;8.28;4.65;;;;;;;16.92;48.12;99090.55;1759877;80;22040;-90
2024/01/05 12:27:58;;;;;;;11.08;4.90;;;;;;;17.37;47.02;99102.16;1756442;81;21897;-89
2024/01/05 12:31:05;;;;;;;6.62;3.72;;;;;;;16.61;48.21;99103.73;1758333;80;21336;-89
2024/01/05 12:34:13;;;;;;;7.40;4.33;;;;;;;16.68;48.11;99109.64;1757707;80;21978;-89
2024/01/05 12:37:19;;;;;;;6.70;4.37;;;;;;;16.97;47.52;99116.87;1756887;81;21312;-89
2024/01/05 12:40:31;;;;;;;14.35;4.97;;;;;;;16.42;48.81;99114.66;1764304;80;21346;-89
2024/01/05 12:43:38;;;;;;;6.42;4.37;;;;;;;16.83;47.68;99109.97;1737443;81;21236;-89
2024/01/05 12:46:50;;;;;;;8.65;4.40;;;;;;;15.48;50.31;99120.16;1745330;81;21347;-89
2024/01/05 12:49:56;;;;;;;6.40;4.67;;;;;;;16.67;48.65;99112.12;1767455;79;21312;-89
2024/01/05 12:53:01;;;;;;;10.43;4.97;;;;;;;16.61;48.46;99118.92;1766849;80;21376;-88
2024/01/05 12:56:21;;;;;;;6.42;4.17;;;;;;;17.27;47.35;99124.92;1744258;82;21339;-89
2024/01/05 12:59:32;;;;;;;8.08;4.42;;;;;;;16.51;48.62;99126.95;1745539;81;21307;-89
2024/01/05 13:02:46;;;;;;;8.53;4.35;;;;;;;16.52;48.29;99133.34;1767233;81;21315;-89
2024/01/05 13:05:53;;;;;;;8.23;4.92;;;;;;;16.08;49.24;99135.13;1767416;81;21312;-89
2024/01/05 13:09:00;;;;;;;7.53;4.75;;;;;;;16.72;48.59;99136.55;1765442;81;21312;-90
2024/01/05 13:12:08;;;;;;;8.13;4.55;;;;;;;16.44;49.06;99134.55;1754116;81;21246;-89
2024/01/05 13:15:16;;;;;;;7.00;4.17;;;;;;;16.38;49.32;99136.91;1753754;81;21946;-89
2024/01/05 13:18:21;;;;;;;9.83;3.87;;;;;;;16.08;49.95;99142.56;1771414;79;21883;-89
2024/01/05 13:21:30;;;;;;;6.97;3.30;;;;;;;16.70;48.57;99154.40;1761313;81;21318;-89
2024/01/05 13:24:36;;;;;;;4.42;2.60;;;;;;;16.62;48.68;99154.26;1745725;81;21371;-90
2024/01/05 13:27:42;;;;;;;2.95;2.08;;;;;;;16.50;48.72;99163.93;1764506;81;21326;-89
2024/01/05 13:30:48;;;;;;;3.45;2.35;;;;;;;16.72;47.62;99165.55;1739873;81;21264;-90
2024/01/05 13:33:54;;;;;;;5.83;2.92;;;;;;;16.65;46.44;99177.77;1764248;81;21341;-91
2024/01/05 13:37:01;;;;;;;6.85;3.35;;;;;;;16.40;46.51;99178.89;1765573;80;21277;-90
2024/01/05 13:40:07;;;;;;;3.62;2.80;;;;;;;15.53;48.00;99185.58;1764007;81;21347;-90
2024/01/05 13:43:13;;;;;;;6.17;2.85;;;;;;;16.48;45.92;99188.19;1773109;79;21974;-90
2024/01/05 13:46:20;;;;;;;3.95;2.77;;;;;;;16.49;45.90;99198.14;1718788;82;21762;-89
2024/01/05 13:49:26;;;;;;;3.87;2.90;;;;;;;16.41;45.37;99204.56;1722164;82;21331;-89
2024/01/05 13:52:32;;;;;;;5.85;3.15;;;;;;;16.34;45.81;99206.08;1712350;82;21318;-89
2024/01/05 13:55:38;;;;;;;5.47;2.98;;;;;;;16.07;46.33;99219.50;1717392;83;21340;-90
2024/01/05 13:58:43;;;;;;;4.15;2.80;;;;;;;15.36;47.75;99222.59;1726278;82;21299;-90
2024/01/05 14:01:53;;;;;;;4.50;3.08;;;;;;;15.24;48.40;99226.70;1740582;82;21374;-89
2024/01/05 14:04:59;;;;;;;6.42;3.37;;;;;;;15.27;48.38;99226.20;1765949;81;21371;-89
2024/01/05 14:08:04;;;;;;;5.75;3.58;;;;;;;15.53;47.80;99232.44;1737309;82;21321;-89
2024/01/05 14:11:04;;;;;;;6.67;3.17;;;;;;;15.16;48.46;99240.78;1736785;82;21361;-89
2024/01/05 14:13:56;;;;;;;5.10;3.08;;;;;;;15.68;47.72;99240.30;1695904;82;22277;-89
2024/01/05 14:17:03;;;;;;;8.50;4.20;;;;;;;15.64;47.40;99249.56;1716526;83;21973;-90
2024/01/05 14:20:09;;;;;;;6.85;4.10;;;;;;;15.11;48.25;99253.03;1707118;84;21347;-90
2024/01/05 14:23:15;;;;;;;5.47;3.55;;;;;;;15.22;48.03;99257.75;1715546;83;21359;-89
2024/01/05 14:26:21;;;;;;;8.10;3.65;;;;;;;15.11;47.97;99261.83;1715870;83;21957;-89
2024/01/05 14:29:26;;;;;;;6.75;3.70;;;;;;;15.21;47.72;99270.38;1749377;82;21299;-88